createdAt,value
2022-12-05T00:01:20.767Z,68.12
2022-12-05T00:03:49.285Z,68.14
2022-12-05T00:06:16.530Z,68.53
2022-12-05T00:08:43.881Z,68.03
2022-12-05T00:11:16.810Z,68.20
2022-12-05T00:13:44.337Z,68.30
2022-12-05T00:16:12.972Z,68.19
2022-12-05T00:18:39.678Z,68.45
2022-12-05T00:21:06.991Z,68.17
2022-12-05T00:23:33.821Z,68.21
2022-12-05T00:26:04.720Z,68.07
2022-12-05T00:28:32.969Z,68.24
2022-12-05T00:31:11.765Z,68.22
2022-12-05T00:33:38.239Z,68.26
2022-12-05T00:36:07.287Z,68.18
2022-12-05T00:38:33.598Z,68.51
2022-12-05T00:41:08.329Z,68.29
2022-12-05T00:43:35.189Z,68.30
2022-12-05T00:46:07.135Z,68.37
2022-12-05T00:48:34.236Z,68.25
2022-12-05T00:51:09.654Z,68.59
2022-12-05T00:53:36.428Z,68.29
2022-12-05T00:56:05.858Z,68.44
2022-12-05T00:58:33.026Z,68.47
2022-12-05T01:01:32.433Z,68.44
2022-12-05T01:04:06.735Z,68.59
2022-12-05T01:06:33.140Z,68.77
2022-12-05T01:09:00.003Z,68.31
2022-12-05T01:11:27.057Z,68.45
2022-12-05T01:13:53.893Z,68.69
2022-12-05T01:16:22.085Z,68.39
2022-12-05T01:18:48.871Z,68.44
2022-12-05T01:21:15.772Z,68.55
2022-12-05T01:23:42.097Z,68.44
2022-12-05T01:26:11.112Z,68.43
2022-12-05T01:28:37.740Z,68.71
2022-12-05T01:31:07.658Z,68.95
2022-12-05T01:33:35.234Z,68.83
2022-12-05T01:36:03.329Z,68.91
2022-12-05T01:38:29.725Z,68.63
2022-12-05T01:41:01.214Z,68.71
2022-12-05T01:43:27.816Z,68.84
2022-12-05T01:45:54.197Z,68.90
2022-12-05T01:48:40.814Z,68.78
2022-12-05T01:51:07.275Z,68.66
2022-12-05T01:53:33.781Z,68.83
2022-12-05T01:56:00.218Z,68.56
2022-12-05T01:58:32.754Z,68.77
2022-12-05T02:00:59.092Z,68.86
2022-12-05T02:03:25.715Z,68.78
2022-12-05T02:05:54.170Z,68.76
2022-12-05T02:08:21.403Z,69.18
2022-12-05T02:10:53.043Z,69.15
2022-12-05T02:13:38.078Z,68.93
2022-12-05T02:16:34.837Z,69.22
2022-12-05T02:19:13.341Z,68.71
2022-12-05T02:22:06.417Z,69.13
2022-12-05T02:25:00.603Z,69.01
2022-12-05T02:28:04.642Z,68.78
2022-12-05T02:30:43.268Z,68.68
2022-12-05T02:33:29.095Z,69.22
2022-12-05T02:36:05.142Z,69.03
2022-12-05T02:38:38.543Z,69.20
2022-12-05T02:41:22.275Z,68.83
2022-12-05T02:43:55.558Z,68.89
2022-12-05T02:46:25.324Z,69.22
2022-12-05T02:48:55.861Z,69.07
2022-12-05T02:51:25.737Z,68.86
2022-12-05T02:53:56.491Z,68.97
2022-12-05T02:56:24.112Z,69.16
2022-12-05T02:58:53.895Z,69.31
2022-12-05T03:01:24.320Z,69.25
2022-12-05T03:03:51.447Z,68.83
2022-12-05T03:06:27.655Z,68.85
2022-12-05T03:09:11.879Z,68.83
2022-12-05T03:11:49.339Z,68.94
2022-12-05T03:14:23.873Z,68.86
2022-12-05T03:16:53.790Z,69.22
2022-12-05T03:19:37.261Z,69.21
2022-12-05T03:22:10.592Z,68.85
2022-12-05T03:24:40.461Z,69.02
2022-12-05T03:27:19.001Z,68.83
2022-12-05T03:29:55.486Z,69.12
2022-12-05T03:32:30.314Z,68.94
2022-12-05T03:35:02.719Z,68.86
2022-12-05T03:37:47.596Z,68.62
2022-12-05T03:40:52.725Z,68.95
2022-12-05T03:43:51.330Z,68.99
2022-12-05T03:46:30.511Z,68.93
2022-12-05T03:49:16.955Z,68.76
2022-12-05T03:51:55.709Z,68.87
2022-12-05T03:54:29.849Z,68.32
2022-12-05T03:57:03.251Z,68.62
2022-12-05T03:59:52.426Z,68.29
2022-12-05T04:02:28.932Z,68.30
2022-12-05T04:05:01.836Z,68.61
2022-12-05T04:07:33.329Z,68.36
2022-12-05T04:10:05.985Z,68.25
2022-12-05T04:12:35.218Z,68.28
2022-12-05T04:15:10.656Z,67.99
2022-12-05T04:17:53.215Z,68.53
2022-12-05T04:20:56.760Z,68.40
2022-12-05T04:23:24.045Z,68.21
2022-12-05T04:26:13.527Z,68.04
2022-12-05T04:28:51.495Z,68.43
2022-12-05T04:31:24.234Z,68.66
2022-12-05T04:33:55.213Z,68.34
2022-12-05T04:36:40.590Z,68.53
2022-12-05T04:39:18.054Z,68.38
2022-12-05T04:41:51.005Z,68.42
2022-12-05T04:44:20.401Z,68.53
2022-12-05T04:46:49.620Z,67.96
2022-12-05T04:49:21.493Z,68.12
2022-12-05T04:51:52.495Z,68.30
2022-12-05T04:54:31.130Z,67.99
2022-12-05T04:57:10.256Z,68.09
2022-12-05T04:59:36.670Z,68.40
2022-12-05T05:02:12.693Z,68.44
2022-12-05T05:04:46.718Z,68.41
2022-12-05T05:07:14.312Z,68.04
2022-12-05T05:09:40.807Z,67.98
2022-12-05T05:12:07.896Z,68.03
2022-12-05T05:14:34.404Z,68.11
2022-12-05T05:17:00.968Z,68.44
2022-12-05T05:19:27.332Z,68.35
2022-12-05T05:21:53.844Z,68.01
2022-12-05T05:24:21.721Z,67.83
2022-12-05T05:26:52.495Z,68.00
2022-12-05T05:29:22.055Z,68.35
2022-12-05T05:31:48.417Z,67.72
2022-12-05T05:34:16.134Z,68.29
2022-12-05T05:36:43.174Z,68.18
2022-12-05T05:39:13.604Z,67.82
2022-12-05T05:41:39.959Z,68.11
2022-12-05T05:44:06.360Z,67.73
2022-12-05T05:46:35.427Z,68.10
2022-12-05T05:49:02.279Z,67.75
2022-12-05T05:51:30.071Z,68.05
2022-12-05T05:53:58.276Z,67.58
2022-12-05T05:56:25.038Z,67.70
2022-12-05T05:58:56.574Z,67.88
2022-12-05T06:01:23.318Z,67.50
2022-12-05T06:03:50.697Z,67.65
2022-12-05T06:06:18.530Z,67.63
2022-12-05T06:08:45.335Z,67.48
2022-12-05T06:11:26.336Z,67.54
2022-12-05T06:13:57.133Z,67.43
2022-12-05T06:16:24.086Z,67.29
2022-12-05T06:18:51.677Z,67.53
2022-12-05T06:21:18.053Z,67.69
2022-12-05T06:23:44.756Z,67.36
2022-12-05T06:26:19.517Z,67.60
2022-12-05T06:28:45.954Z,67.53
2022-12-05T06:31:23.770Z,67.28
2022-12-05T06:33:50.326Z,67.01
2022-12-05T06:36:20.571Z,67.36
2022-12-05T06:38:47.318Z,67.45
2022-12-05T06:41:19.303Z,67.70
2022-12-05T06:43:46.346Z,67.78
2022-12-05T06:46:14.383Z,67.70
2022-12-05T06:48:40.874Z,67.79
2022-12-05T06:51:10.261Z,68.02
2022-12-05T06:53:36.587Z,68.21
2022-12-05T06:56:05.042Z,68.15
2022-12-05T06:58:31.824Z,68.03
2022-12-05T07:01:16.888Z,67.81
2022-12-05T07:03:44.079Z,67.58
2022-12-05T07:06:11.376Z,67.73
2022-12-05T07:08:39.005Z,67.65
2022-12-05T07:11:05.421Z,67.55
2022-12-05T07:13:31.746Z,67.38
2022-12-05T07:15:59.042Z,67.98
2022-12-05T07:18:26.309Z,68.01
2022-12-05T07:21:12.137Z,67.50
2022-12-05T07:23:40.419Z,67.72
2022-12-05T07:26:08.523Z,67.70
2022-12-05T07:28:35.268Z,67.82
2022-12-05T07:31:06.202Z,67.83
2022-12-05T07:33:32.517Z,67.98
2022-12-05T07:36:03.399Z,67.58
2022-12-05T07:38:30.335Z,67.70
2022-12-05T07:40:57.011Z,67.85
2022-12-05T07:43:23.455Z,67.90
2022-12-05T07:45:50.383Z,68.08
2022-12-05T07:48:18.936Z,68.33
2022-12-05T07:50:45.889Z,67.78
2022-12-05T07:53:12.385Z,67.82
2022-12-05T07:55:39.208Z,67.85
2022-12-05T07:58:05.569Z,67.93
2022-12-05T08:00:31.941Z,68.11
2022-12-05T08:02:58.451Z,68.20
2022-12-05T08:05:24.784Z,67.80
2022-12-05T08:07:51.156Z,67.99
2022-12-05T08:10:17.618Z,68.49
2022-12-05T08:12:43.930Z,67.79
2022-12-05T08:15:10.415Z,68.08
2022-12-05T08:17:36.776Z,68.09
2022-12-05T08:20:03.328Z,68.40
2022-12-05T08:22:29.705Z,68.03
2022-12-05T08:24:56.503Z,68.48
2022-12-05T08:27:23.010Z,68.45
2022-12-05T08:29:55.826Z,68.08
2022-12-05T08:32:22.507Z,68.52
2022-12-05T08:34:49.038Z,68.52
2022-12-05T08:37:15.380Z,68.21
2022-12-05T08:39:41.881Z,67.66
2022-12-05T08:42:08.191Z,68.06
2022-12-05T08:44:34.513Z,67.86
2022-12-05T08:47:00.857Z,68.02
2022-12-05T08:49:28.077Z,67.81
2022-12-05T08:51:54.437Z,67.58
2022-12-05T08:54:20.793Z,67.42
2022-12-05T08:56:51.452Z,67.84
2022-12-05T08:59:18.156Z,67.67
2022-12-05T09:01:44.528Z,67.57
2022-12-05T09:04:12.245Z,67.72
2022-12-05T09:06:39.802Z,67.44
2022-12-05T09:09:09.089Z,67.34
2022-12-05T09:11:40.747Z,67.29
2022-12-05T09:14:07.442Z,67.26
2022-12-05T09:16:38.469Z,67.09
2022-12-05T09:19:06.895Z,66.99
2022-12-05T09:21:33.277Z,67.17
2022-12-05T09:24:00.379Z,66.96
2022-12-05T09:26:28.063Z,66.73
2022-12-05T09:28:54.446Z,66.63
2022-12-05T09:31:23.391Z,66.56
2022-12-05T09:33:51.574Z,66.42
2022-12-05T09:36:27.045Z,66.52
2022-12-05T09:38:54.594Z,65.71
2022-12-05T09:42:07.822Z,65.81
2022-12-05T09:44:41.580Z,65.56
2022-12-05T09:47:24.670Z,65.88
2022-12-05T09:50:02.901Z,65.82
2022-12-05T09:52:35.837Z,65.18
2022-12-05T09:55:12.951Z,65.27
2022-12-05T09:57:47.251Z,65.59
2022-12-05T10:00:14.425Z,65.22
2022-12-05T10:03:08.834Z,65.22
2022-12-05T10:05:54.927Z,65.31
2022-12-05T10:08:47.188Z,65.18
2022-12-05T10:11:26.279Z,65.22
2022-12-05T10:14:19.762Z,65.64
2022-12-05T10:16:52.291Z,65.60
2022-12-05T10:19:31.978Z,65.65
2022-12-05T10:22:04.979Z,65.42
2022-12-05T10:24:40.471Z,65.63
2022-12-05T10:27:14.022Z,65.27
2022-12-05T10:29:49.027Z,65.55
2022-12-05T10:32:31.924Z,65.65
2022-12-05T10:35:24.392Z,65.06
2022-12-05T10:37:58.106Z,65.34
2022-12-05T10:40:42.884Z,65.17
2022-12-05T10:43:13.351Z,65.03
2022-12-05T10:45:43.986Z,65.23
2022-12-05T10:48:17.346Z,64.65
2022-12-05T10:50:46.151Z,64.80
2022-12-05T10:53:18.409Z,64.85
2022-12-05T10:56:21.380Z,64.21
2022-12-05T10:58:34.338Z,64.32
2022-12-05T11:01:14.111Z,63.73
2022-12-05T11:03:43.325Z,63.64
2022-12-05T11:06:22.902Z,63.84
2022-12-05T11:09:10.069Z,63.64
2022-12-05T11:11:36.626Z,63.67
2022-12-05T11:14:25.275Z,63.72
2022-12-05T11:16:57.583Z,63.96
2022-12-05T11:19:29.086Z,64.23
2022-12-05T11:21:56.030Z,64.06
2022-12-05T11:24:25.919Z,64.07
2022-12-05T11:26:52.514Z,64.22
2022-12-05T11:29:37.447Z,64.54
2022-12-05T11:32:06.224Z,64.46
2022-12-05T11:34:47.525Z,65.08
2022-12-05T11:37:22.356Z,64.80
2022-12-05T11:39:48.696Z,64.46
2022-12-05T11:42:44.957Z,64.41
2022-12-05T11:45:18.000Z,64.65
2022-12-05T11:48:22.282Z,64.65
2022-12-05T11:51:21.629Z,64.64
2022-12-05T11:54:35.586Z,64.37
2022-12-05T11:57:56.027Z,64.43
2022-12-05T12:00:24.895Z,64.80
2022-12-05T12:03:20.460Z,64.66
2022-12-05T12:06:20.622Z,64.77
2022-12-05T12:09:10.561Z,64.52
2022-12-05T12:11:58.927Z,64.64
2022-12-05T12:14:34.905Z,65.01
2022-12-05T12:17:10.509Z,64.98
2022-12-05T12:19:51.936Z,65.13
2022-12-05T12:22:49.526Z,65.15
2022-12-05T12:25:18.914Z,64.94
2022-12-05T12:28:05.416Z,64.65
2022-12-05T12:31:02.096Z,64.86
2022-12-05T12:33:38.953Z,65.03
2022-12-05T12:36:43.910Z,64.29
2022-12-05T12:39:37.174Z,64.19
2022-12-05T12:42:24.454Z,63.65
2022-12-05T12:45:02.941Z,64.18
2022-12-05T12:47:39.994Z,63.65
2022-12-05T12:50:27.345Z,63.47
2022-12-05T12:53:10.756Z,63.69
2022-12-05T12:55:50.891Z,63.99
2022-12-05T12:58:45.245Z,64.02
2022-12-05T13:01:17.635Z,64.03
2022-12-05T13:03:51.968Z,63.99
2022-12-05T13:06:26.806Z,64.12
2022-12-05T13:09:24.476Z,64.37
2022-12-05T13:11:53.121Z,64.28
2022-12-05T13:14:24.742Z,64.41
2022-12-05T13:16:54.180Z,63.86
2022-12-05T13:19:50.846Z,64.59
2022-12-05T13:22:18.615Z,64.38
2022-12-05T13:24:45.380Z,63.85
2022-12-05T13:27:20.613Z,64.02
2022-12-05T13:29:46.847Z,64.13
2022-12-05T13:32:38.352Z,64.02
2022-12-05T13:35:07.717Z,63.67
2022-12-05T13:37:53.315Z,64.13
2022-12-05T13:40:43.789Z,63.98
2022-12-05T13:43:12.829Z,64.01
2022-12-05T13:45:40.864Z,64.02
2022-12-05T13:48:18.525Z,64.30
2022-12-05T13:50:52.573Z,64.46
2022-12-05T13:53:31.127Z,64.00
2022-12-05T13:56:14.686Z,64.19
2022-12-05T13:58:46.813Z,64.44
2022-12-05T14:01:25.258Z,64.12
2022-12-05T14:03:51.626Z,64.44
2022-12-05T14:06:39.221Z,64.34
2022-12-05T14:09:17.661Z,64.02
2022-12-05T14:12:12.446Z,64.28
2022-12-05T14:14:57.090Z,64.20
2022-12-05T14:17:27.889Z,63.86
2022-12-05T14:20:33.333Z,63.63
2022-12-05T14:23:23.163Z,63.76
2022-12-05T14:26:08.933Z,64.03
2022-12-05T14:28:52.390Z,63.75
2022-12-05T14:31:42.406Z,63.74
2022-12-05T14:34:24.830Z,63.62
2022-12-05T14:37:02.924Z,63.91
2022-12-05T14:39:35.312Z,63.94
2022-12-05T14:42:04.880Z,63.83
2022-12-05T14:44:34.557Z,63.97
2022-12-05T14:47:05.643Z,63.47
2022-12-05T14:50:07.245Z,63.91
2022-12-05T14:52:34.679Z,63.89
2022-12-05T14:55:12.314Z,63.79
2022-12-05T14:57:47.726Z,63.93
2022-12-05T15:00:23.033Z,63.46
2022-12-05T15:02:52.809Z,63.65
2022-12-05T15:05:27.302Z,63.28
2022-12-05T15:07:56.139Z,63.52
2022-12-05T15:10:29.455Z,63.59
2022-12-05T15:13:03.196Z,63.66
2022-12-05T15:15:41.817Z,63.60
2022-12-05T15:18:34.818Z,63.97
2022-12-05T15:21:18.119Z,63.97
2022-12-05T15:23:45.628Z,63.90
2022-12-05T15:26:46.108Z,63.97
2022-12-05T15:29:14.898Z,63.97
2022-12-05T15:31:48.850Z,63.92
2022-12-05T15:34:36.785Z,63.96
2022-12-05T15:37:29.082Z,63.62
2022-12-05T15:39:55.404Z,63.75
2022-12-05T15:42:31.001Z,64.06
2022-12-05T15:45:11.652Z,63.71
2022-12-05T15:47:59.254Z,63.69
2022-12-05T15:50:35.776Z,63.83
2022-12-05T15:53:13.451Z,63.66
2022-12-05T15:55:55.255Z,63.75
2022-12-05T15:58:48.161Z,63.67
2022-12-05T16:01:20.972Z,64.32
2022-12-05T16:03:55.501Z,64.05
2022-12-05T16:06:44.441Z,63.68
2022-12-05T16:09:17.461Z,63.75
2022-12-05T16:12:03.830Z,63.66
2022-12-05T16:14:58.956Z,63.95
2022-12-05T16:17:21.725Z,63.82
2022-12-05T16:19:48.255Z,63.94
2022-12-05T16:22:17.504Z,63.91
2022-12-05T16:24:59.249Z,63.97
2022-12-05T16:27:27.520Z,63.93
2022-12-05T16:30:13.026Z,63.61
2022-12-05T16:32:44.836Z,63.37
2022-12-05T16:35:36.288Z,63.55
2022-12-05T16:38:25.588Z,63.24
2022-12-05T16:40:55.859Z,63.10
2022-12-05T16:43:27.669Z,63.79
2022-12-05T16:45:56.300Z,63.68
2022-12-05T16:48:30.821Z,63.58
2022-12-05T16:51:18.389Z,63.49
2022-12-05T16:53:48.284Z,63.80
2022-12-05T16:56:19.913Z,63.88
2022-12-05T16:58:46.590Z,63.68
2022-12-05T17:01:27.306Z,63.67
2022-12-05T17:03:55.533Z,63.54
2022-12-05T17:06:23.981Z,63.54
2022-12-05T17:08:51.779Z,63.66
2022-12-05T17:11:22.837Z,63.70
2022-12-05T17:13:49.995Z,63.99
2022-12-05T17:16:18.135Z,63.81
2022-12-05T17:18:45.412Z,64.45
2022-12-05T17:21:20.480Z,64.19
2022-12-05T17:23:48.312Z,64.07
2022-12-05T17:26:17.542Z,64.05
2022-12-05T17:28:43.908Z,63.92
2022-12-05T17:31:13.437Z,64.09
2022-12-05T17:33:39.874Z,63.79
2022-12-05T17:36:06.385Z,63.92
2022-12-05T17:38:32.692Z,64.49
2022-12-05T17:41:02.547Z,64.03
2022-12-05T17:43:32.368Z,63.98
2022-12-05T17:46:02.686Z,63.83
2022-12-05T17:48:29.441Z,63.87
2022-12-05T17:50:58.920Z,64.09
2022-12-05T17:53:25.347Z,63.81
2022-12-05T17:55:52.032Z,63.74
2022-12-05T17:58:18.426Z,63.68
2022-12-05T18:00:46.793Z,63.84
2022-12-05T18:03:16.200Z,63.64
2022-12-05T18:05:43.466Z,63.85
2022-12-05T18:08:10.623Z,63.87
2022-12-05T18:10:36.972Z,63.67
2022-12-05T18:13:03.309Z,63.67
2022-12-05T18:15:30.058Z,63.62
2022-12-05T18:17:56.506Z,63.88
2022-12-05T18:20:22.874Z,63.56
2022-12-05T18:22:51.025Z,63.74
2022-12-05T18:25:17.385Z,63.61
2022-12-05T18:27:43.756Z,63.51
2022-12-05T18:30:11.170Z,63.79
2022-12-05T18:32:38.381Z,63.73
2022-12-05T18:35:09.969Z,63.63
2022-12-05T18:37:39.363Z,63.77
2022-12-05T18:40:07.391Z,63.79
2022-12-05T18:42:33.783Z,63.79
2022-12-05T18:45:01.515Z,63.81
2022-12-05T18:47:28.171Z,64.05
2022-12-05T18:49:54.506Z,64.17
2022-12-05T18:52:20.976Z,63.84
2022-12-05T18:54:57.649Z,64.22
2022-12-05T18:57:33.603Z,63.83
2022-12-05T19:00:00.130Z,63.85
2022-12-05T19:02:26.604Z,64.11
2022-12-05T19:04:52.944Z,64.03
2022-12-05T19:07:19.314Z,63.82
2022-12-05T19:09:45.781Z,64.37
2022-12-05T19:12:12.092Z,64.00
2022-12-05T19:14:38.413Z,63.94
2022-12-05T19:17:05.008Z,63.89
2022-12-05T19:19:31.402Z,63.80
2022-12-05T19:21:59.107Z,63.96
2022-12-05T19:24:25.571Z,63.89
2022-12-05T19:26:51.929Z,64.21
2022-12-05T19:29:18.290Z,64.28
2022-12-05T19:31:45.559Z,64.23
2022-12-05T19:34:12.668Z,64.00
2022-12-05T19:36:44.974Z,64.15
2022-12-05T19:39:20.361Z,63.76
2022-12-05T19:41:47.198Z,63.90
2022-12-05T19:44:13.575Z,64.00
2022-12-05T19:46:40.146Z,63.90
2022-12-05T19:49:10.597Z,63.73
2022-12-05T19:51:37.587Z,63.77
2022-12-05T19:54:05.519Z,63.95
2022-12-05T19:56:33.862Z,63.94
2022-12-05T19:59:00.386Z,63.97
2022-12-05T20:01:35.185Z,63.72
2022-12-05T20:04:07.238Z,63.96
2022-12-05T20:06:37.848Z,63.83
2022-12-05T20:09:05.690Z,63.59
2022-12-05T20:11:32.423Z,63.77
2022-12-05T20:14:01.050Z,64.02
2022-12-05T20:16:28.093Z,63.93
2022-12-05T20:18:57.932Z,63.79
2022-12-05T20:21:24.881Z,63.94
2022-12-05T20:23:53.069Z,63.32
2022-12-05T20:26:21.861Z,63.51
2022-12-05T20:28:48.214Z,63.41
2022-12-05T20:31:17.886Z,63.45
2022-12-05T20:33:44.339Z,63.81
2022-12-05T20:36:16.281Z,63.48
2022-12-05T20:38:42.754Z,63.81
2022-12-05T20:41:15.269Z,63.62
2022-12-05T20:43:45.465Z,63.73
2022-12-05T20:46:15.018Z,63.46
2022-12-05T20:48:41.751Z,63.48
2022-12-05T20:51:10.881Z,63.43
2022-12-05T20:53:39.101Z,63.55
2022-12-05T20:56:07.083Z,63.60
2022-12-05T20:58:33.509Z,63.74
2022-12-05T21:01:01.359Z,63.86
2022-12-05T21:03:27.842Z,63.78
2022-12-05T21:05:54.203Z,64.02
2022-12-05T21:08:21.227Z,64.04
2022-12-05T21:10:49.913Z,64.08
2022-12-05T21:13:16.241Z,63.78
2022-12-05T21:15:42.650Z,63.96
2022-12-05T21:18:09.097Z,63.89
2022-12-05T21:20:41.773Z,64.07
2022-12-05T21:23:08.549Z,63.91
2022-12-05T21:25:34.930Z,63.93
2022-12-05T21:28:02.062Z,63.82
2022-12-05T21:30:28.545Z,63.92
2022-12-05T21:32:55.306Z,63.88
2022-12-05T21:35:21.650Z,63.95
2022-12-05T21:37:47.962Z,63.96
2022-12-05T21:40:14.283Z,63.98
2022-12-05T21:42:40.611Z,64.26
2022-12-05T21:45:07.405Z,64.09
2022-12-05T21:47:33.745Z,64.33
2022-12-05T21:50:00.280Z,64.05
2022-12-05T21:52:26.868Z,64.08
2022-12-05T21:54:53.165Z,64.33
2022-12-05T21:57:20.213Z,64.13
2022-12-05T21:59:46.712Z,63.76
2022-12-05T22:02:13.032Z,63.92
2022-12-05T22:04:39.472Z,63.69
2022-12-05T22:07:05.786Z,63.95
2022-12-05T22:09:32.101Z,64.03
2022-12-05T22:11:58.599Z,63.93
2022-12-05T22:14:24.897Z,63.88
2022-12-05T22:16:51.278Z,64.25
2022-12-05T22:19:17.635Z,64.22
2022-12-05T22:21:43.994Z,63.92
2022-12-05T22:24:10.326Z,63.92
2022-12-05T22:26:36.642Z,64.04
2022-12-05T22:29:02.977Z,64.31
2022-12-05T22:31:29.372Z,64.18
2022-12-05T22:33:55.749Z,64.38
2022-12-05T22:36:24.069Z,64.39
2022-12-05T22:38:50.443Z,64.27
2022-12-05T22:41:22.107Z,64.56
2022-12-05T22:43:50.011Z,64.58
2022-12-05T22:46:18.982Z,64.25
2022-12-05T22:48:46.734Z,64.86
2022-12-05T22:51:13.760Z,64.60
2022-12-05T22:53:40.639Z,64.59
2022-12-05T22:56:09.500Z,64.70
2022-12-05T22:58:36.461Z,64.29
2022-12-05T23:01:23.729Z,64.69
2022-12-05T23:03:58.984Z,64.46
2022-12-05T23:06:26.625Z,64.66
2022-12-05T23:08:53.738Z,64.80
2022-12-05T23:11:20.562Z,64.25
2022-12-05T23:13:48.810Z,64.51
2022-12-05T23:16:16.909Z,64.74
2022-12-05T23:18:49.542Z,64.34
2022-12-05T23:21:25.101Z,64.76
2022-12-05T23:23:53.942Z,64.35
2022-12-05T23:26:22.498Z,64.63
2022-12-05T23:28:49.323Z,64.18
2022-12-05T23:31:16.196Z,64.50
2022-12-05T23:33:42.832Z,64.44
2022-12-05T23:36:10.850Z,64.16
2022-12-05T23:38:38.782Z,64.34
2022-12-05T23:41:06.437Z,64.22
2022-12-05T23:43:34.689Z,64.04
2022-12-05T23:46:01.659Z,64.07
2022-12-05T23:48:28.835Z,63.91
2022-12-05T23:50:59.350Z,63.93
2022-12-05T23:53:26.257Z,63.94
2022-12-05T23:55:52.666Z,63.93
2022-12-05T23:58:19.092Z,64.28
